Time;durP1;ratioP1;P1;durP2;ratioP2;P2;SDS_P1;SDS_P2;PMS_P1;PMS_P2;Temp;Humidity;BMP_temperature;BMP_pressure;BME280_temperature;BME280_humidity;BME280_pressure;Samples;Min_cycle;Max_cycle;Signal;HPM_P1;HPM_P2
2021/01/16 00:00:56;;;;;;;12.87;4.17;;;;;;;-4.76;66.25;101019.86;1770054;81;21079;-59
2021/01/16 00:03:24;;;;;;;12.07;4.53;;;;;;;-4.82;66.16;101020.58;1770080;81;21113;-60
2021/01/16 00:05:52;;;;;;;12.43;4.40;;;;;;;-4.87;65.86;101011.67;1770099;81;21131;-60
2021/01/16 00:08:23;;;;;;;11.13;3.77;;;;;;;-4.91;65.83;101010.70;1770082;81;21205;-60
2021/01/16 00:10:55;;;;;;;8.33;3.60;;;;;;;-4.96;65.47;101005.75;1770118;81;21397;-60
2021/01/16 00:13:26;;;;;;;9.37;3.40;;;;;;;-5.00;65.64;101006.89;1770047;81;21110;-60
2021/01/16 00:15:54;;;;;;;9.10;3.77;;;;;;;-5.03;65.41;100999.83;1770103;81;21110;-60
2021/01/16 00:18:23;;;;;;;7.27;3.50;;;;;;;-5.07;65.27;101005.40;1769995;81;21114;-61
2021/01/16 00:20:55;;;;;;;9.60;3.70;;;;;;;-5.07;65.49;101008.41;1770103;81;21526;-60
2021/01/16 00:23:23;;;;;;;8.63;3.37;;;;;;;-5.06;65.50;101007.58;1769936;80;21125;-59
2021/01/16 00:25:50;;;;;;;7.67;3.40;;;;;;;-5.05;65.44;101019.41;1770159;81;21157;-60
2021/01/16 00:28:29;;;;;;;8.00;3.37;;;;;;;-5.03;65.48;101012.91;1770017;81;21051;-60
2021/01/16 00:30:59;;;;;;;9.87;3.80;;;;;;;-5.03;65.04;101005.06;1770091;81;21050;-60
2021/01/16 00:33:29;;;;;;;8.43;3.40;;;;;;;-5.02;65.25;101002.91;1770059;81;21375;-60
2021/01/16 00:35:57;;;;;;;8.27;3.70;;;;;;;-5.01;65.33;101004.69;1770017;81;21487;-60
2021/01/16 00:38:25;;;;;;;9.80;3.67;;;;;;;-5.01;64.79;101002.07;1781093;80;21123;-60
2021/01/16 00:40:53;;;;;;;8.50;3.97;;;;;;;-5.06;64.76;100998.02;1783913;80;21107;-60
2021/01/16 00:43:21;;;;;;;11.37;3.73;;;;;;;-5.10;64.49;100992.63;1784108;80;21159;-60
2021/01/16 00:45:50;;;;;;;7.40;3.57;;;;;;;-5.15;64.47;100994.21;1784162;80;21378;-61
2021/01/16 00:48:23;;;;;;;10.17;3.93;;;;;;;-5.18;64.92;101003.73;1784075;80;21147;-60
2021/01/16 00:50:53;;;;;;;7.47;3.27;;;;;;;-5.18;65.17;101010.27;1784063;80;21179;-60
2021/01/16 00:53:23;;;;;;;7.17;3.53;;;;;;;-5.15;65.00;101004.67;1756225;80;21142;-60
2021/01/16 00:56:02;;;;;;;7.27;3.07;;;;;;;-5.11;64.96;101003.92;1783600;80;21144;-60
2021/01/16 00:58:31;;;;;;;11.87;4.57;;;;;;;-5.07;64.72;101003.19;1784000;80;21362;-60
2021/01/16 01:01:00;;;;;;;9.40;3.73;;;;;;;-5.10;64.80;101001.78;1783081;80;21100;-60
2021/01/16 01:03:30;;;;;;;10.47;4.30;;;;;;;-5.09;65.26;100993.09;1783851;80;21096;-59
2021/01/16 01:05:57;;;;;;;10.20;4.17;;;;;;;-5.07;65.11;101000.57;1784051;80;21073;-60
2021/01/16 01:08:31;;;;;;;16.47;4.30;;;;;;;-5.04;65.10;100999.36;1784031;80;21100;-60
2021/01/16 01:10:59;;;;;;;7.80;3.85;;;;;;;-4.98;65.32;101007.83;1784248;80;21275;-59
2021/01/16 01:13:26;;;;;;;7.50;3.80;;;;;;;-4.91;65.41;101005.47;1783922;80;21104;-60
2021/01/16 01:15:54;;;;;;;9.63;4.13;;;;;;;-4.84;65.39;101000.43;1784065;80;21225;-60
2021/01/16 01:18:22;;;;;;;8.70;4.03;;;;;;;-4.76;65.56;101001.55;1784003;80;21147;-60
2021/01/16 01:20:51;;;;;;;8.07;3.70;;;;;;;-4.70;65.60;100999.16;1784125;80;21198;-60
2021/01/16 01:23:21;;;;;;;8.47;4.10;;;;;;;-4.66;65.18;101003.64;1784106;80;21595;-60
2021/01/16 01:25:48;;;;;;;13.33;4.80;;;;;;;-4.67;64.36;101003.57;1783964;80;21021;-59
2021/01/16 01:28:16;;;;;;;11.23;4.20;;;;;;;-4.72;64.29;101008.69;1784065;80;21112;-61
2021/01/16 01:30:44;;;;;;;10.77;4.10;;;;;;;-4.78;64.31;101013.70;1783901;80;21143;-60
2021/01/16 01:33:15;;;;;;;11.83;4.40;;;;;;;-4.84;64.25;101009.59;1784059;80;21112;-60
2021/01/16 01:35:46;;;;;;;11.07;4.73;;;;;;;-4.87;64.31;100997.72;1784011;80;21451;-60
2021/01/16 01:38:17;;;;;;;10.30;4.00;;;;;;;-4.95;64.26;101002.30;1782742;80;21158;-60
2021/01/16 01:40:45;;;;;;;12.03;4.57;;;;;;;-4.99;64.73;100995.59;1784317;80;21126;-60
2021/01/16 01:43:13;;;;;;;11.90;4.70;;;;;;;-5.02;65.14;100997.68;1762701;81;20935;-60
2021/01/16 01:45:40;;;;;;;10.33;4.50;;;;;;;-5.02;65.52;100996.37;1776856;80;21186;-60
2021/01/16 01:48:10;;;;;;;9.97;4.50;;;;;;;-5.00;65.84;100989.46;1762805;81;21672;-60
2021/01/16 01:50:37;;;;;;;10.37;4.40;;;;;;;-4.98;66.12;100994.31;1776837;80;20949;-60
2021/01/16 01:53:05;;;;;;;9.10;3.93;;;;;;;-4.95;66.18;101000.98;1737278;81;21147;-59
2021/01/16 01:55:33;;;;;;;8.07;4.00;;;;;;;-4.94;66.05;101004.07;1776861;80;21115;-60
2021/01/16 01:58:02;;;;;;;10.37;3.87;;;;;;;-4.94;65.92;101000.14;1761895;81;21153;-59
2021/01/16 02:00:30;;;;;;;8.63;3.97;;;;;;;-4.95;65.54;100998.38;1776877;80;21747;-60
2021/01/16 02:03:00;;;;;;;9.47;3.80;;;;;;;-4.99;65.23;100999.08;1762550;81;20955;-61
2021/01/16 02:05:27;;;;;;;10.60;3.73;;;;;;;-5.01;65.09;101006.43;1776940;80;21508;-60
2021/01/16 02:07:54;;;;;;;9.97;4.20;;;;;;;-5.03;65.23;100999.83;1762685;81;21152;-59
2021/01/16 02:10:23;;;;;;;12.37;4.43;;;;;;;-5.00;65.29;100999.92;1776869;80;21099;-60
2021/01/16 02:12:54;;;;;;;9.37;4.07;;;;;;;-4.99;65.37;101000.83;1762581;81;21424;-59
2021/01/16 02:15:48;;;;;;;8.00;4.17;;;;;;;-4.99;65.65;100997.77;1776763;80;21150;-60
2021/01/16 02:18:33;;;;;;;9.03;3.90;;;;;;;-4.98;65.57;100993.02;1762717;81;21169;-60
2021/01/16 02:21:02;;;;;;;9.73;3.77;;;;;;;-5.00;65.40;100999.92;1776827;80;21130;-60
2021/01/16 02:23:49;;;;;;;9.37;4.33;;;;;;;-5.02;65.69;100992.45;1762692;81;21133;-60
2021/01/16 02:26:46;;;;;;;8.70;4.00;;;;;;;-5.01;65.87;100995.53;1776827;80;22303;-60
2021/01/16 02:29:15;;;;;;;9.67;3.97;;;;;;;-4.97;66.01;100994.81;1762893;81;21152;-60
2021/01/16 02:32:02;;;;;;;10.27;4.07;;;;;;;-4.93;65.95;100990.15;1776843;80;21470;-60
2021/01/16 02:34:39;;;;;;;10.47;4.23;;;;;;;-4.92;65.84;100978.85;1762283;81;38523;-60
2021/01/16 02:37:42;;;;;;;10.57;4.07;;;;;;;-4.91;65.87;100978.01;1777272;80;21171;-60
2021/01/16 02:40:23;;;;;;;11.05;4.12;;;;;;;-4.89;65.76;100979.34;1778392;80;21878;-59
2021/01/16 02:43:13;;;;;;;10.20;3.90;;;;;;;-4.91;65.59;100980.63;1778149;80;21180;-60
2021/01/16 02:45:52;;;;;;;7.17;3.23;;;;;;;-4.94;65.77;100984.45;1787094;80;21060;-61
2021/01/16 02:48:22;;;;;;;7.93;3.90;;;;;;;-4.96;65.95;100985.23;1787028;80;21056;-60
2021/01/16 02:50:52;;;;;;;7.40;3.40;;;;;;;-4.94;66.51;100983.14;1787194;80;21563;-60
2021/01/16 02:53:23;;;;;;;9.13;3.87;;;;;;;-4.89;66.32;100985.48;1786973;80;21436;-59
2021/01/16 02:55:53;;;;;;;10.03;3.92;;;;;;;-4.85;66.37;100977.73;1787242;80;27009;-59
2021/01/16 02:58:21;;;;;;;7.90;3.80;;;;;;;-4.84;66.11;100975.58;1712164;80;21158;-56
2021/01/16 03:00:49;;;;;;;9.13;3.67;;;;;;;-4.82;66.12;100980.44;1786997;80;21048;-56
2021/01/16 03:03:17;;;;;;;7.43;3.87;;;;;;;-4.82;65.64;100981.34;1787090;80;21041;-56
2021/01/16 03:05:45;;;;;;;7.70;3.80;;;;;;;-4.79;65.79;100985.76;1786930;80;21198;-55
2021/01/16 03:08:12;;;;;;;7.77;3.93;;;;;;;-4.75;65.99;100970.66;1786980;80;21132;-55
2021/01/16 03:10:40;;;;;;;10.57;4.63;;;;;;;-4.71;66.02;100979.06;1760738;80;20946;-56
2021/01/16 03:13:07;;;;;;;10.73;4.13;;;;;;;-4.67;66.14;100973.08;1760763;80;21044;-56
2021/01/16 03:15:35;;;;;;;9.00;4.50;;;;;;;-4.64;66.33;100973.16;1760801;80;21132;-56
2021/01/16 03:18:03;;;;;;;10.00;4.53;;;;;;;-4.60;66.44;100969.80;1787068;80;21698;-55
2021/01/16 03:20:31;;;;;;;11.20;5.00;;;;;;;-4.57;66.33;100966.80;1760901;80;21175;-56
2021/01/16 03:23:01;;;;;;;17.53;5.67;;;;;;;-4.54;66.29;100965.58;1787086;80;21543;-55
2021/01/16 03:25:31;;;;;;;13.90;4.77;;;;;;;-4.55;66.63;100955.55;1786992;80;21139;-56
2021/01/16 03:28:00;;;;;;;13.20;5.30;;;;;;;-4.53;66.60;100955.17;1787005;80;21052;-56
2021/01/16 03:30:30;;;;;;;11.47;5.37;;;;;;;-4.53;66.74;100951.25;1787001;80;21364;-56
2021/01/16 03:32:57;;;;;;;10.97;4.83;;;;;;;-4.48;66.88;100957.94;1786936;80;21060;-55
2021/01/16 03:35:26;;;;;;;11.20;4.27;;;;;;;-4.46;66.75;100956.25;1787031;80;21136;-56
2021/01/16 03:37:57;;;;;;;10.00;4.70;;;;;;;-4.45;66.75;100963.27;1784260;80;21079;-56
2021/01/16 03:40:25;;;;;;;10.07;4.43;;;;;;;-4.46;66.97;100962.36;1756795;81;21050;-55
2021/01/16 03:42:53;;;;;;;10.70;4.63;;;;;;;-4.49;66.65;100955.73;1776915;80;21139;-56
2021/01/16 03:45:22;;;;;;;15.27;8.23;;;;;;;-4.49;66.50;100952.23;1776935;80;21192;-56
2021/01/16 03:47:50;;;;;;;12.80;6.43;;;;;;;-4.55;65.97;100944.18;1777068;80;21686;-55
2021/01/16 03:50:20;;;;;;;13.47;5.10;;;;;;;-4.63;65.96;100946.16;1727892;81;21105;-55
2021/01/16 03:52:48;;;;;;;10.83;4.83;;;;;;;-4.67;65.96;100946.91;1770948;81;21115;-56
2021/01/16 03:55:16;;;;;;;10.90;4.77;;;;;;;-4.72;65.81;100945.89;1756849;81;21386;-56
2021/01/16 03:57:43;;;;;;;9.50;4.40;;;;;;;-4.70;66.27;100944.20;1770841;80;20996;-56
2021/01/16 04:00:12;;;;;;;11.53;4.63;;;;;;;-4.67;66.43;100944.30;1756794;81;21168;-56
2021/01/16 04:02:40;;;;;;;9.47;4.40;;;;;;;-4.64;66.58;100945.69;1771030;81;21501;-56
2021/01/16 04:05:10;;;;;;;11.83;4.70;;;;;;;-4.61;66.63;100947.09;1756767;81;21078;-56
2021/01/16 04:07:37;;;;;;;13.17;4.63;;;;;;;-4.58;66.16;100945.00;1770961;81;21372;-55
2021/01/16 04:10:06;;;;;;;9.37;4.27;;;;;;;-4.61;66.01;100947.09;1756745;81;21137;-55
2021/01/16 04:12:34;;;;;;;8.37;4.07;;;;;;;-4.61;65.72;100948.39;1776892;80;21123;-56
2021/01/16 04:15:03;;;;;;;13.50;4.40;;;;;;;-4.58;65.77;100950.63;1776874;80;21142;-55
2021/01/16 04:17:31;;;;;;;14.93;5.20;;;;;;;-4.54;65.92;100952.50;1776897;80;21047;-55
2021/01/16 04:19:58;;;;;;;12.70;4.70;;;;;;;-4.49;65.68;100955.73;1756867;81;21203;-55
2021/01/16 04:22:26;;;;;;;10.50;4.63;;;;;;;-4.47;65.62;100958.41;1770842;80;21068;-56
2021/01/16 04:24:54;;;;;;;19.23;6.83;;;;;;;-4.43;65.99;100966.81;1756927;81;21109;-55
2021/01/16 04:27:22;;;;;;;32.03;8.87;;;;;;;-4.39;66.09;100963.44;1776915;80;21115;-55
2021/01/16 04:29:49;;;;;;;25.20;8.73;;;;;;;-4.37;66.12;100964.80;1756958;81;21148;-55
2021/01/16 04:32:17;;;;;;;24.63;8.70;;;;;;;-4.36;66.13;100964.83;1788019;80;21480;-55
2021/01/16 04:34:45;;;;;;;25.23;7.70;;;;;;;-4.34;65.96;100957.91;1776977;80;21166;-56
2021/01/16 04:37:12;;;;;;;19.50;7.07;;;;;;;-4.33;65.89;100957.06;1757162;81;21193;-55
2021/01/16 04:39:40;;;;;;;14.53;5.90;;;;;;;-4.34;65.83;100956.59;1781085;80;21162;-55
2021/01/16 04:42:08;;;;;;;17.93;6.43;;;;;;;-4.32;65.87;100962.77;1780909;79;21117;-55
2021/01/16 04:44:36;;;;;;;19.23;6.80;;;;;;;-4.29;66.02;100963.72;1781074;80;21195;-56
2021/01/16 04:47:04;;;;;;;18.97;6.43;;;;;;;-4.27;65.81;100964.66;1780994;80;21026;-55
2021/01/16 04:49:32;;;;;;;17.03;5.80;;;;;;;-4.26;65.46;100963.81;1751048;80;21117;-55
2021/01/16 04:52:00;;;;;;;15.77;5.43;;;;;;;-4.25;65.49;100957.73;1781033;80;21050;-56
2021/01/16 04:54:27;;;;;;;12.33;5.03;;;;;;;-4.23;65.32;100952.98;1781003;80;21049;-57
2021/01/16 04:56:56;;;;;;;16.40;5.50;;;;;;;-4.17;65.31;100954.89;1751165;80;21725;-56
2021/01/16 04:59:23;;;;;;;14.17;5.33;;;;;;;-4.13;65.22;100960.68;1780934;80;21109;-57
2021/01/16 05:01:51;;;;;;;11.87;4.27;;;;;;;-4.12;65.10;100954.59;1781082;80;21061;-56
2021/01/16 05:04:19;;;;;;;10.10;4.17;;;;;;;-4.14;64.66;100958.91;1780893;80;21082;-56
2021/01/16 05:06:47;;;;;;;12.23;4.27;;;;;;;-4.15;64.60;100951.03;1781072;80;21083;-56
2021/01/16 05:09:14;;;;;;;8.43;3.47;;;;;;;-4.14;64.69;100942.33;1750798;80;21201;-56
2021/01/16 05:11:46;;;;;;;8.50;4.10;;;;;;;-4.11;64.72;100948.52;1749790;80;21117;-56
2021/01/16 05:14:16;;;;;;;12.13;3.93;;;;;;;-4.11;64.50;100951.13;1749691;80;21125;-56
2021/01/16 05:16:59;;;;;;;7.77;3.77;;;;;;;-4.11;64.54;100945.90;1781083;80;21512;-56
2021/01/16 05:19:32;;;;;;;10.37;4.10;;;;;;;-4.09;64.79;100949.48;1781122;80;21517;-56
2021/01/16 05:22:00;;;;;;;8.87;4.10;;;;;;;-4.07;64.59;100937.31;1781099;80;21529;-55
2021/01/16 05:24:28;;;;;;;9.17;3.80;;;;;;;-4.09;64.30;100931.14;1780926;79;21145;-55
2021/01/16 05:27:05;;;;;;;8.63;3.97;;;;;;;-4.06;64.42;100932.94;1780920;80;21089;-56
2021/01/16 05:29:35;;;;;;;10.43;4.37;;;;;;;-4.03;64.43;100931.71;1780966;80;21101;-56
2021/01/16 05:32:04;;;;;;;11.13;4.67;;;;;;;-4.01;64.33;100935.70;1781031;80;21525;-56
2021/01/16 05:34:34;;;;;;;12.13;4.80;;;;;;;-4.00;64.21;100924.38;1781116;80;21548;-56
2021/01/16 05:37:02;;;;;;;10.50;4.50;;;;;;;-4.05;64.08;100929.07;1770933;80;22053;-55
2021/01/16 05:39:32;;;;;;;7.50;3.43;;;;;;;-4.05;64.02;100925.14;1734441;82;21153;-56
2021/01/16 05:42:04;;;;;;;11.90;3.97;;;;;;;-4.03;64.02;100930.40;1753863;81;21529;-56
2021/01/16 05:44:33;;;;;;;24.47;11.53;;;;;;;-4.02;63.86;100925.63;1736532;82;21163;-56
2021/01/16 05:47:02;;;;;;;24.93;9.53;;;;;;;-3.99;63.95;100927.45;1783049;80;22236;-56
2021/01/16 05:49:29;;;;;;;10.73;4.60;;;;;;;-3.97;64.12;100926.66;1711634;82;21147;-56
2021/01/16 05:51:58;;;;;;;9.00;3.37;;;;;;;-3.96;64.17;100924.91;1782890;80;21054;-55
2021/01/16 05:54:29;;;;;;;8.43;3.80;;;;;;;-3.95;63.63;100921.45;1736538;82;20955;-56
2021/01/16 05:56:56;;;;;;;10.17;3.90;;;;;;;-3.96;63.43;100929.75;1782955;80;21043;-56
2021/01/16 05:59:26;;;;;;;10.93;4.60;;;;;;;-3.94;63.47;100934.60;1736482;82;21361;-56
2021/01/16 06:01:53;;;;;;;10.70;4.47;;;;;;;-3.92;63.61;100937.25;1758850;80;22190;-55
2021/01/16 06:04:21;;;;;;;9.17;3.90;;;;;;;-3.92;63.75;100932.00;1688374;82;21219;-55
2021/01/16 06:06:49;;;;;;;11.80;4.23;;;;;;;-3.92;63.43;100937.25;1782885;80;21158;-55
2021/01/16 06:09:19;;;;;;;11.70;4.73;;;;;;;-3.91;63.25;100940.33;1736578;82;21123;-56
2021/01/16 06:11:48;;;;;;;11.60;4.70;;;;;;;-3.89;63.23;100933.39;1782937;80;22114;-55
2021/01/16 06:14:16;;;;;;;12.03;4.40;;;;;;;-3.85;63.48;100939.20;1736560;82;21559;-56
2021/01/16 06:16:55;;;;;;;14.60;5.03;;;;;;;-3.82;63.36;100940.59;1782767;80;21090;-56
2021/01/16 06:19:26;;;;;;;9.20;4.43;;;;;;;-3.80;63.30;100946.77;1783124;80;21459;-57
2021/01/16 06:21:54;;;;;;;13.07;4.47;;;;;;;-3.79;63.23;100945.92;1783191;80;21121;-56
2021/01/16 06:24:23;;;;;;;16.07;4.90;;;;;;;-3.81;62.78;100946.30;1783259;80;21387;-57
2021/01/16 06:26:56;;;;;;;17.63;5.30;;;;;;;-3.81;62.80;100949.33;1742499;82;21073;-57
2021/01/16 06:29:35;;;;;;;18.93;5.53;;;;;;;-3.77;63.05;100956.02;1742549;82;21117;-56
2021/01/16 06:32:08;;;;;;;20.60;7.17;;;;;;;-3.75;62.76;100956.94;1742542;82;21165;-57
2021/01/16 06:34:42;;;;;;;26.07;7.93;;;;;;;-3.73;62.69;100960.92;1742491;82;21058;-55
2021/01/16 06:37:14;;;;;;;37.63;10.30;;;;;;;-3.71;62.97;100964.47;1754099;80;21206;-56
2021/01/16 06:39:44;;;;;;;33.80;10.17;;;;;;;-3.65;63.21;100974.20;1763413;81;21429;-56
2021/01/16 06:42:13;;;;;;;28.60;8.33;;;;;;;-3.62;63.32;100971.70;1774782;80;21174;-57
2021/01/16 06:44:41;;;;;;;16.70;6.87;;;;;;;-3.59;63.29;100971.77;1760433;81;21090;-56
2021/01/16 06:47:09;;;;;;;17.43;7.00;;;;;;;-3.56;63.46;100973.57;1774640;80;21043;-56
2021/01/16 06:49:36;;;;;;;20.20;7.27;;;;;;;-3.53;63.54;100983.72;1760436;81;21387;-56
2021/01/16 06:52:06;;;;;;;19.17;6.73;;;;;;;-3.48;63.29;100993.03;1774540;80;20957;-56
2021/01/16 06:54:36;;;;;;;18.37;6.53;;;;;;;-3.47;63.04;100989.56;1760484;81;21109;-56
2021/01/16 06:57:11;;;;;;;20.07;7.00;;;;;;;-3.42;62.89;100987.94;1774588;80;21147;-56
2021/01/16 06:59:41;;;;;;;20.90;6.63;;;;;;;-3.37;62.74;100995.94;1760539;81;21471;-56
2021/01/16 07:02:26;;;;;;;20.10;7.07;;;;;;;-3.34;62.28;100999.50;1774518;80;21206;-56
2021/01/16 07:05:09;;;;;;;22.48;8.43;;;;;;;-3.29;62.22;101001.39;1760603;81;23112;-56
2021/01/16 07:07:40;;;;;;;28.47;7.67;;;;;;;-3.25;62.22;101005.86;1774583;80;20941;-56
2021/01/16 07:10:12;;;;;;;26.77;7.70;;;;;;;-3.21;62.14;101002.02;1760482;81;21199;-56
2021/01/16 07:12:46;;;;;;;21.97;7.00;;;;;;;-3.15;62.13;101002.60;1774478;80;21154;-56
2021/01/16 07:15:13;;;;;;;28.65;8.38;;;;;;;-3.09;62.18;101009.75;1760840;81;22117;-56
2021/01/16 07:17:41;;;;;;;19.07;7.20;;;;;;;-3.05;62.21;101012.50;1774675;80;21080;-56
2021/01/16 07:20:10;;;;;;;19.27;6.60;;;;;;;-3.01;62.12;101008.19;1760568;81;21062;-56
2021/01/16 07:22:41;;;;;;;25.77;6.40;;;;;;;-3.00;61.77;101012.59;1774688;80;21055;-56
2021/01/16 07:25:11;;;;;;;20.20;6.23;;;;;;;-3.00;61.45;101015.66;1760675;81;21042;-55
2021/01/16 07:27:39;;;;;;;11.63;4.60;;;;;;;-3.03;61.52;101020.39;1774741;80;21221;-55
2021/01/16 07:30:12;;;;;;;26.17;6.50;;;;;;;-3.04;61.75;101019.92;1760580;81;21196;-55
2021/01/16 07:32:49;;;;;;;35.67;8.73;;;;;;;-3.03;62.02;101017.77;1774727;80;21091;-56
2021/01/16 07:35:22;;;;;;;15.17;5.77;;;;;;;-3.00;62.33;101023.08;1758407;81;21077;-56
2021/01/16 07:37:52;;;;;;;20.00;5.43;;;;;;;-2.99;62.45;101019.61;1776805;80;21121;-57
2021/01/16 07:40:27;;;;;;;17.57;6.30;;;;;;;-3.00;62.31;101019.59;1778254;80;21401;-57
2021/01/16 07:43:03;;;;;;;17.97;6.30;;;;;;;-2.99;62.52;101023.98;1767635;80;21136;-57
2021/01/16 07:45:38;;;;;;;12.60;4.77;;;;;;;-2.94;63.10;101029.82;1788463;80;21126;-57
2021/01/16 07:48:06;;;;;;;;;;;;;;;-2.88;63.24;101024.72;1774977;81;21151;-57
2021/01/16 07:50:37;;;;;;;17.80;6.20;;;;;;;-2.84;63.11;101027.41;1772220;81;20222;-56
2021/01/16 07:53:09;;;;;;;13.80;5.13;;;;;;;-2.80;63.17;101039.34;1772272;81;21257;-56
2021/01/16 07:55:44;;;;;;;9.70;4.47;;;;;;;-2.76;63.75;101035.06;1772373;81;21083;-56
2021/01/16 07:58:26;;;;;;;8.75;4.25;;;;;;;-2.75;63.57;101037.70;1772416;80;21596;-57
2021/01/16 08:01:35;;;;;;;15.20;3.63;;;;;;;-2.76;63.88;101032.00;1774559;80;21449;-56
2021/01/16 08:04:24;;;;;;;8.53;3.67;;;;;;;-2.76;64.32;101039.88;1774660;80;21174;-57
2021/01/16 08:07:09;;;;;;;10.73;3.90;;;;;;;-2.84;65.21;101034.88;1774453;80;21352;-56
2021/01/16 08:09:51;;;;;;;9.20;4.50;;;;;;;-2.92;66.28;101035.99;1774609;79;21091;-56
2021/01/16 08:12:21;;;;;;;11.27;4.70;;;;;;;-2.94;67.30;101033.76;1774440;79;21099;-55
2021/01/16 08:14:49;;;;;;;9.57;4.90;;;;;;;-2.89;68.21;101033.84;1774474;80;21056;-56
2021/01/16 08:17:25;;;;;;;14.90;5.57;;;;;;;-2.83;68.87;101032.71;1774430;80;21052;-56
2021/01/16 08:20:27;;;;;;;15.53;6.23;;;;;;;-2.78;69.56;101034.11;1774424;80;21552;-56
2021/01/16 08:22:53;;;;;;;15.40;6.03;;;;;;;-2.73;70.26;101043.01;1774157;80;21123;-56
2021/01/16 08:25:27;;;;;;;15.97;6.50;;;;;;;-2.70;70.66;101037.83;1774473;80;21068;-57
2021/01/16 08:27:56;;;;;;;15.30;6.00;;;;;;;-2.70;71.09;101045.70;1774299;80;21174;-56
2021/01/16 08:30:28;;;;;;;16.87;6.67;;;;;;;-2.67;71.62;101049.71;1774583;80;21552;-57
2021/01/16 08:33:05;;;;;;;10.97;4.90;;;;;;;-2.61;71.96;101043.29;1774394;80;21398;-57
2021/01/16 08:35:41;;;;;;;12.07;5.70;;;;;;;-2.64;71.65;101043.66;1774451;80;21306;-57
2021/01/16 08:38:21;;;;;;;13.93;5.00;;;;;;;-2.77;72.19;101033.26;1782024;79;21058;-57
2021/01/16 08:41:05;;;;;;;11.67;5.53;;;;;;;-2.86;72.26;101025.17;1762704;81;21161;-56
2021/01/16 08:43:42;;;;;;;12.43;5.23;;;;;;;-2.94;73.02;101028.91;1776631;80;21229;-57
2021/01/16 08:46:17;;;;;;;14.67;5.07;;;;;;;-3.04;73.53;101030.42;1759714;81;21446;-56
2021/01/16 08:49:17;;;;;;;11.38;4.53;;;;;;;-3.11;74.01;101029.81;1776687;80;21114;-57
2021/01/16 08:51:52;;;;;;;13.00;4.87;;;;;;;-3.08;74.46;101029.88;1759715;81;21129;-56
2021/01/16 08:54:20;;;;;;;10.95;4.42;;;;;;;-2.97;74.96;101022.28;1751969;80;21080;-57
2021/01/16 08:56:53;;;;;;;12.73;6.10;;;;;;;-2.89;75.02;101019.01;1759781;81;21062;-57
2021/01/16 08:59:28;;;;;;;15.53;6.50;;;;;;;-2.88;74.43;101015.53;1776583;80;21271;-56
2021/01/16 09:02:15;;;;;;;13.80;6.33;;;;;;;-2.91;74.49;101010.63;1759715;81;21081;-56
2021/01/16 09:04:44;;;;;;;12.83;6.17;;;;;;;-2.94;74.70;101003.58;1776572;80;21559;-56
2021/01/16 09:07:23;;;;;;;10.37;5.10;;;;;;;-2.94;74.91;100997.02;1759701;81;21192;-57
2021/01/16 09:10:01;;;;;;;13.40;6.10;;;;;;;-2.93;74.65;100997.48;1776593;80;21209;-56
2021/01/16 09:12:33;;;;;;;17.10;7.93;;;;;;;-2.95;74.62;100994.34;1759696;81;21199;-57
2021/01/16 09:15:28;;;;;;;15.47;7.00;;;;;;;-2.98;75.01;100992.55;1776541;80;21160;-56
2021/01/16 09:18:11;;;;;;;15.00;7.07;;;;;;;-2.96;75.69;100993.88;1758731;81;21152;-56
2021/01/16 09:20:48;;;;;;;14.27;6.30;;;;;;;-2.90;76.04;100985.74;1776712;80;21480;-56
2021/01/16 09:23:26;;;;;;;15.67;6.60;;;;;;;-2.81;75.58;100988.11;1758608;81;21110;-57
2021/01/16 09:26:07;;;;;;;17.77;6.70;;;;;;;-2.74;75.72;100990.05;1776717;80;21341;-57
2021/01/16 09:28:49;;;;;;;14.57;6.13;;;;;;;-2.62;75.43;100982.45;1759590;81;21124;-57
2021/01/16 09:31:24;;;;;;;11.67;5.43;;;;;;;-2.50;74.82;100980.52;1776564;80;21103;-56
2021/01/16 09:33:57;;;;;;;12.28;5.45;;;;;;;-2.50;74.03;100979.66;1759826;81;21050;-57
2021/01/16 09:36:41;;;;;;;13.22;5.25;;;;;;;-2.54;73.49;100984.34;1776401;80;21197;-57
2021/01/16 09:39:29;;;;;;;17.53;5.57;;;;;;;-2.63;72.97;100979.36;1731127;82;21444;-57
2021/01/16 09:42:01;;;;;;;14.17;6.33;;;;;;;-2.70;72.99;100981.80;1747149;81;21073;-56
2021/01/16 09:44:51;;;;;;;13.80;5.90;;;;;;;-2.67;73.88;100974.00;1756050;81;22266;-56
2021/01/16 09:47:33;;;;;;;16.07;5.67;;;;;;;-2.54;74.43;100969.91;1755987;81;21110;-57
2021/01/16 09:50:12;;;;;;;10.83;5.33;;;;;;;-2.38;74.06;100972.02;1755944;81;21159;-56
2021/01/16 09:52:53;;;;;;;9.73;4.87;;;;;;;-2.23;73.72;100967.97;1756087;81;21391;-56
2021/01/16 09:55:31;;;;;;;10.97;5.17;;;;;;;-2.13;73.27;100967.29;1755747;81;21183;-57
2021/01/16 09:58:01;;;;;;;14.60;5.47;;;;;;;-1.99;72.88;100966.70;1755855;81;21089;-57
2021/01/16 10:00:31;;;;;;;10.18;4.45;;;;;;;-1.93;72.16;100961.55;1755849;81;21143;-56
2021/01/16 10:03:06;;;;;;;11.12;4.67;;;;;;;-1.90;71.99;100962.92;1755992;81;21502;-56
2021/01/16 10:05:38;;;;;;;11.50;5.25;;;;;;;-1.85;72.11;100954.73;1756121;81;22139;-56
2021/01/16 10:08:07;;;;;;;12.00;5.03;;;;;;;-1.87;71.74;100961.70;1755897;81;21140;-56
2021/01/16 10:10:46;;;;;;;10.93;5.37;;;;;;;-1.99;72.22;100962.34;1755895;81;21113;-57
2021/01/16 10:13:34;;;;;;;12.25;5.97;;;;;;;-2.08;72.37;100954.25;1755858;81;21125;-57
2021/01/16 10:16:11;;;;;;;15.23;5.83;;;;;;;-2.15;72.97;100953.23;1755861;81;21137;-56
2021/01/16 10:18:40;;;;;;;14.17;6.13;;;;;;;-2.18;73.43;100955.80;1755876;81;21350;-56
2021/01/16 10:21:12;;;;;;;14.00;6.65;;;;;;;-2.22;73.92;100952.22;1755817;81;21093;-56
2021/01/16 10:23:41;;;;;;;13.87;6.40;;;;;;;-2.21;74.60;100946.55;1755952;81;21056;-56
2021/01/16 10:26:16;;;;;;;37.47;10.43;;;;;;;-2.11;74.74;100949.81;1755849;81;21195;-56
2021/01/16 10:28:56;;;;;;;30.50;10.00;;;;;;;-2.07;74.27;100955.61;1755977;81;21132;-56
2021/01/16 10:31:24;;;;;;;19.73;7.90;;;;;;;-2.07;73.44;100954.30;1756043;81;21518;-56
2021/01/16 10:33:52;;;;;;;15.23;6.83;;;;;;;-2.08;73.14;100945.96;1755815;81;21164;-57
2021/01/16 10:36:20;;;;;;;26.37;9.30;;;;;;;-2.11;73.09;100937.98;1706630;81;21145;-57
2021/01/16 10:38:55;;;;;;;32.38;12.03;;;;;;;-2.14;73.07;100935.30;1783540;80;21114;-57
2021/01/16 10:41:35;;;;;;;13.88;5.10;;;;;;;-2.14;73.07;100928.73;1785372;80;21244;-56
2021/01/16 10:44:12;;;;;;;7.63;3.60;;;;;;;-2.19;71.55;100923.41;1759583;81;21155;-56
2021/01/16 10:46:43;;;;;;;39.87;8.23;;;;;;;-2.35;70.11;100919.56;1776477;80;21072;-56
2021/01/16 10:49:21;;;;;;;20.77;6.83;;;;;;;-2.39;70.08;100908.54;1759678;81;21057;-56
2021/01/16 10:52:01;;;;;;;13.73;5.93;;;;;;;-2.39;70.09;100904.59;1776574;80;21067;-56
2021/01/16 10:54:29;;;;;;;23.90;8.30;;;;;;;-2.42;70.22;100907.17;1759777;81;21192;-56
2021/01/16 10:57:08;;;;;;;16.67;6.35;;;;;;;-2.49;69.97;100905.28;1776513;80;21206;-56
2021/01/16 10:59:38;;;;;;;15.90;6.13;;;;;;;-2.55;70.30;100910.38;1759611;81;21485;-57
2021/01/16 11:02:13;;;;;;;12.97;5.50;;;;;;;-2.67;70.28;100906.65;1776528;80;21115;-57
2021/01/16 11:04:43;;;;;;;13.28;5.85;;;;;;;-2.72;70.43;100912.23;1759810;81;21129;-57
2021/01/16 11:07:12;;;;;;;19.80;6.20;;;;;;;-2.76;70.04;100908.64;1776533;80;21059;-56
2021/01/16 11:09:42;;;;;;;25.57;6.80;;;;;;;-2.75;70.85;100896.42;1759787;81;22269;-56
2021/01/16 11:12:10;;;;;;;14.37;6.30;;;;;;;-2.73;71.37;100901.27;1776394;80;21079;-56
2021/01/16 11:14:40;;;;;;;13.57;5.93;;;;;;;-2.76;71.01;100907.77;1759676;81;21066;-57
2021/01/16 11:17:11;;;;;;;18.13;7.00;;;;;;;-2.75;70.53;100901.67;1776471;80;21067;-57
2021/01/16 11:19:42;;;;;;;18.70;7.27;;;;;;;-2.67;70.71;100913.62;1759768;81;21065;-56
2021/01/16 11:22:11;;;;;;;30.60;10.87;;;;;;;-2.56;70.21;100900.73;1776561;80;21707;-57
2021/01/16 11:25:11;;;;;;;19.00;8.43;;;;;;;-2.51;69.41;100909.17;1759591;81;21565;-56
2021/01/16 11:27:41;;;;;;;18.03;7.67;;;;;;;-2.49;68.42;100905.28;1759762;81;21487;-56
2021/01/16 11:30:18;;;;;;;19.67;6.80;;;;;;;-2.52;67.90;100899.97;1709050;81;21089;-57
2021/01/16 11:32:46;;;;;;;21.13;6.97;;;;;;;-2.52;67.55;100892.09;1732149;81;21149;-56
2021/01/16 11:35:14;;;;;;;11.28;5.20;;;;;;;-2.50;66.67;100887.75;1759639;81;21378;-56
2021/01/16 11:37:50;;;;;;;12.63;5.17;;;;;;;-2.53;65.17;100883.75;1760295;81;21176;-56
2021/01/16 11:40:33;;;;;;;11.00;4.57;;;;;;;-2.62;63.53;100891.00;1761234;81;21200;-57
2021/01/16 11:43:12;;;;;;;15.17;6.97;;;;;;;-2.80;64.06;100886.22;1760517;81;21538;-56